createdAt,value
2022-10-06T00:01:09.060Z,10.17
2022-10-06T00:03:41.831Z,10.20
2022-10-06T00:06:13.182Z,10.23
2022-10-06T00:08:42.178Z,10.26
2022-10-06T00:11:12.214Z,10.28
2022-10-06T00:13:40.273Z,10.28
2022-10-06T00:16:14.033Z,10.29
2022-10-06T00:18:41.447Z,10.29
2022-10-06T00:21:08.892Z,10.28
2022-10-06T00:23:36.640Z,10.29
2022-10-06T00:26:04.205Z,10.31
2022-10-06T00:28:32.265Z,10.34
2022-10-06T00:31:02.613Z,10.36
2022-10-06T00:33:30.373Z,10.38
2022-10-06T00:35:58.528Z,10.38
2022-10-06T00:38:27.655Z,10.36
2022-10-06T00:40:55.727Z,10.38
2022-10-06T00:44:10.789Z,10.41
2022-10-06T00:46:53.053Z,10.44
2022-10-06T00:49:31.587Z,10.45
2022-10-06T00:52:07.124Z,10.46
2022-10-06T00:54:35.916Z,10.47
2022-10-06T00:57:04.924Z,10.48
2022-10-06T00:59:34.700Z,10.49
2022-10-06T01:02:08.571Z,10.50
2022-10-06T01:04:40.251Z,10.51
2022-10-06T01:07:08.087Z,10.52
2022-10-06T01:09:37.509Z,10.53
2022-10-06T01:12:07.463Z,10.54
2022-10-06T01:14:37.608Z,10.54
2022-10-06T01:17:21.330Z,10.54
2022-10-06T01:20:11.024Z,10.54
2022-10-06T01:22:48.217Z,10.54
2022-10-06T01:25:17.955Z,10.55
2022-10-06T01:27:53.214Z,10.57
2022-10-06T01:30:32.299Z,10.59
2022-10-06T01:32:59.761Z,10.60
2022-10-06T01:35:27.621Z,10.59
2022-10-06T01:37:58.302Z,10.58
2022-10-06T01:40:28.800Z,10.58
2022-10-06T01:42:57.448Z,10.55
2022-10-06T01:45:26.804Z,10.53
2022-10-06T01:47:54.195Z,10.51
2022-10-06T01:50:22.324Z,10.52
2022-10-06T01:52:49.740Z,10.54
2022-10-06T01:55:17.228Z,10.56
2022-10-06T01:57:45.307Z,10.56
2022-10-06T02:00:14.972Z,10.56
2022-10-06T02:02:43.076Z,10.55
2022-10-06T02:05:10.988Z,10.55
2022-10-06T02:07:41.445Z,10.54
2022-10-06T02:10:09.424Z,10.54
2022-10-06T02:12:37.531Z,10.56
2022-10-06T02:15:07.712Z,10.57
2022-10-06T02:17:35.052Z,10.58
2022-10-06T02:20:02.444Z,10.60
2022-10-06T02:22:30.520Z,10.60
2022-10-06T02:24:57.956Z,10.60
2022-10-06T02:27:25.416Z,10.56
2022-10-06T02:29:53.297Z,10.58
2022-10-06T02:32:20.718Z,10.57
2022-10-06T02:34:49.699Z,10.56
2022-10-06T02:37:17.538Z,10.58
2022-10-06T02:39:45.106Z,10.60
2022-10-06T02:42:12.563Z,10.61
2022-10-06T02:44:40.197Z,10.60
2022-10-06T02:47:14.200Z,10.59
2022-10-06T02:49:41.944Z,10.58
2022-10-06T02:52:10.709Z,10.56
2022-10-06T02:54:38.144Z,10.57
2022-10-06T02:57:05.364Z,10.58
2022-10-06T02:59:33.775Z,10.59
2022-10-06T03:02:01.451Z,10.57
2022-10-06T03:04:29.326Z,10.53
2022-10-06T03:06:57.318Z,10.49
2022-10-06T03:09:27.686Z,10.41
2022-10-06T03:11:55.260Z,10.39
2022-10-06T03:14:35.644Z,10.34
2022-10-06T03:17:03.551Z,10.30
2022-10-06T03:19:31.596Z,10.28
2022-10-06T03:21:59.224Z,10.27
2022-10-06T03:24:34.696Z,10.26
2022-10-06T03:27:02.944Z,10.26
2022-10-06T03:29:30.650Z,10.25
2022-10-06T03:31:58.545Z,10.22
2022-10-06T03:34:25.981Z,10.22
2022-10-06T03:36:54.986Z,10.24
2022-10-06T03:39:22.940Z,10.25
2022-10-06T03:41:50.737Z,10.25
2022-10-06T03:44:18.207Z,10.24
2022-10-06T03:46:46.072Z,10.24
2022-10-06T03:49:13.448Z,10.21
2022-10-06T03:51:41.695Z,10.19
2022-10-06T03:54:16.047Z,10.17
2022-10-06T03:56:45.129Z,10.19
2022-10-06T03:59:19.041Z,10.16
2022-10-06T04:01:48.480Z,10.20
2022-10-06T04:04:20.074Z,10.19
2022-10-06T04:06:50.856Z,10.17
2022-10-06T04:09:20.056Z,10.14
2022-10-06T04:11:48.300Z,10.12
2022-10-06T04:14:16.415Z,10.13
2022-10-06T04:16:50.664Z,10.14
2022-10-06T04:19:25.054Z,10.16
2022-10-06T04:21:55.679Z,10.18
2022-10-06T04:24:24.797Z,10.16
2022-10-06T04:26:52.815Z,10.16
2022-10-06T04:29:21.324Z,10.14
2022-10-06T04:31:53.514Z,10.13
2022-10-06T04:34:25.854Z,10.12
2022-10-06T04:36:54.139Z,10.12
2022-10-06T04:39:22.147Z,10.14
2022-10-06T04:41:49.441Z,10.14
2022-10-06T04:44:21.819Z,10.13
2022-10-06T04:46:49.631Z,10.13
2022-10-06T04:49:20.235Z,10.11
2022-10-06T04:51:49.902Z,10.08
2022-10-06T04:54:18.672Z,10.08
2022-10-06T04:56:46.720Z,10.07
2022-10-06T04:59:15.034Z,10.08
2022-10-06T05:01:44.288Z,10.11
2022-10-06T05:04:13.533Z,10.13
2022-10-06T05:06:44.152Z,10.15
2022-10-06T05:09:14.351Z,10.17
2022-10-06T05:11:47.755Z,10.17
2022-10-06T05:14:17.745Z,10.17
2022-10-06T05:16:47.973Z,10.19
2022-10-06T05:19:16.126Z,10.24
2022-10-06T05:21:44.182Z,10.28
2022-10-06T05:24:15.912Z,10.31
2022-10-06T05:26:43.616Z,10.32
2022-10-06T05:29:13.533Z,10.37
2022-10-06T05:31:42.921Z,10.41
2022-10-06T05:34:10.875Z,10.44
2022-10-06T05:36:38.583Z,10.47
2022-10-06T05:39:07.153Z,10.50
2022-10-06T05:41:45.348Z,10.57
2022-10-06T05:44:14.183Z,10.63
2022-10-06T05:46:43.063Z,10.71
2022-10-06T05:49:12.446Z,10.79
2022-10-06T05:51:43.796Z,10.89
2022-10-06T05:54:31.986Z,10.97
2022-10-06T05:56:59.227Z,11.04
2022-10-06T05:59:26.905Z,11.10
2022-10-06T06:01:55.913Z,11.16
2022-10-06T06:04:42.498Z,11.24
2022-10-06T06:07:10.288Z,11.32
2022-10-06T06:09:38.811Z,11.43
2022-10-06T06:12:06.298Z,11.52
2022-10-06T06:15:07.796Z,11.61
2022-10-06T06:17:49.437Z,11.72
2022-10-06T06:20:16.846Z,11.80
2022-10-06T06:22:44.378Z,11.91
2022-10-06T06:25:12.603Z,12.00
2022-10-06T06:27:41.599Z,12.08
2022-10-06T06:30:10.131Z,12.15
2022-10-06T06:32:39.178Z,12.22
2022-10-06T06:35:07.298Z,12.28
2022-10-06T06:37:34.710Z,12.35
2022-10-06T06:40:02.687Z,12.43
2022-10-06T06:42:32.247Z,12.53
2022-10-06T06:45:18.471Z,12.64
2022-10-06T06:48:06.388Z,12.71
2022-10-06T06:50:34.279Z,12.76
2022-10-06T06:53:02.353Z,12.80
2022-10-06T06:55:30.247Z,12.82
2022-10-06T06:57:57.716Z,12.84
2022-10-06T07:00:25.147Z,12.84
2022-10-06T07:02:55.643Z,12.85
2022-10-06T07:05:22.994Z,12.85
2022-10-06T07:07:50.901Z,12.84
2022-10-06T07:10:18.290Z,12.84
2022-10-06T07:12:46.075Z,12.83
2022-10-06T07:15:32.126Z,12.85
2022-10-06T07:18:21.743Z,12.88
2022-10-06T07:21:07.898Z,12.93
2022-10-06T07:23:54.083Z,12.95
2022-10-06T07:26:21.481Z,13.06
2022-10-06T07:28:51.283Z,13.16
2022-10-06T07:31:19.225Z,13.26
2022-10-06T07:33:47.921Z,13.36
2022-10-06T07:36:16.326Z,13.46
2022-10-06T07:38:44.084Z,13.56
2022-10-06T07:41:19.968Z,13.65
2022-10-06T07:43:54.594Z,13.72
2022-10-06T07:46:23.814Z,13.79
2022-10-06T07:48:59.942Z,13.86
2022-10-06T07:51:27.911Z,13.96
2022-10-06T07:53:56.996Z,14.06
2022-10-06T07:56:34.499Z,14.14
2022-10-06T07:59:02.516Z,14.22
2022-10-06T08:01:30.690Z,14.29
2022-10-06T08:03:58.380Z,14.37
2022-10-06T08:06:26.035Z,14.48
2022-10-06T08:08:54.677Z,14.60
2022-10-06T08:11:22.364Z,14.66
2022-10-06T08:13:51.368Z,14.72
2022-10-06T08:16:22.238Z,14.79
2022-10-06T08:18:52.737Z,14.84
2022-10-06T08:21:29.664Z,14.86
2022-10-06T08:23:58.863Z,14.96
2022-10-06T08:26:27.637Z,15.03
2022-10-06T08:29:02.766Z,15.10
2022-10-06T08:31:31.569Z,15.17
2022-10-06T08:33:59.037Z,15.24
2022-10-06T08:36:31.308Z,15.29
2022-10-06T08:39:00.719Z,15.34
2022-10-06T08:41:45.617Z,15.40
2022-10-06T08:44:18.098Z,15.46
2022-10-06T08:47:00.120Z,15.51
2022-10-06T08:49:39.897Z,15.55
2022-10-06T08:52:47.029Z,15.61
2022-10-06T08:55:33.689Z,15.69
2022-10-06T08:58:38.596Z,15.79
2022-10-06T09:01:32.307Z,15.83
2022-10-06T09:04:01.537Z,15.90
2022-10-06T09:07:10.650Z,15.99
2022-10-06T09:10:25.699Z,16.12
2022-10-06T09:13:10.917Z,16.20
2022-10-06T09:15:48.754Z,16.25
2022-10-06T09:21:42.802Z,16.38
2022-10-06T09:24:16.690Z,16.43
2022-10-06T09:26:46.230Z,16.48
2022-10-06T09:29:14.369Z,16.53
2022-10-06T09:31:49.913Z,16.60
2022-10-06T09:34:22.625Z,16.66
2022-10-06T09:37:08.724Z,16.70
2022-10-06T09:39:39.195Z,16.73
2022-10-06T09:42:09.489Z,16.76
2022-10-06T09:44:52.742Z,16.80
2022-10-06T09:47:32.462Z,16.84
2022-10-06T09:50:11.806Z,16.89
2022-10-06T09:53:05.748Z,16.96
2022-10-06T09:55:43.154Z,17.04
2022-10-06T09:58:24.691Z,17.10
2022-10-06T10:01:00.321Z,17.15
2022-10-06T10:06:42.057Z,17.25
2022-10-06T10:09:21.498Z,17.28
2022-10-06T10:12:28.234Z,17.34
2022-10-06T10:15:37.814Z,17.43
2022-10-06T10:18:12.400Z,17.51
2022-10-06T10:20:55.354Z,17.56
2022-10-06T10:23:31.714Z,17.62
2022-10-06T10:26:44.545Z,17.69
2022-10-06T10:29:32.794Z,17.78
2022-10-06T10:32:34.526Z,17.88
2022-10-06T10:35:12.855Z,17.96
2022-10-06T10:38:02.025Z,17.99
2022-10-06T10:40:53.480Z,18.02
2022-10-06T10:43:44.611Z,18.05
2022-10-06T10:46:17.584Z,18.05
2022-10-06T10:48:52.606Z,18.09
2022-10-06T10:51:30.305Z,18.13
2022-10-06T10:54:14.893Z,18.19
2022-10-06T10:56:43.645Z,18.25
2022-10-06T10:59:31.391Z,18.34
2022-10-06T11:02:13.264Z,18.42
2022-10-06T11:04:46.703Z,18.49
2022-10-06T11:07:17.426Z,18.55
2022-10-06T11:09:53.457Z,18.65
2022-10-06T11:12:53.849Z,18.79
2022-10-06T11:15:53.327Z,18.93
2022-10-06T11:19:02.080Z,19.03
2022-10-06T11:22:13.309Z,19.14
2022-10-06T11:25:13.149Z,19.19
2022-10-06T11:27:49.775Z,19.26
2022-10-06T11:30:19.241Z,19.28
2022-10-06T11:33:02.071Z,19.29
2022-10-06T11:35:36.246Z,19.33
2022-10-06T11:38:16.046Z,19.34
2022-10-06T11:40:49.510Z,19.36
2022-10-06T11:43:46.918Z,19.43
2022-10-06T11:46:32.734Z,19.51
2022-10-06T11:49:27.842Z,19.59
2022-10-06T11:51:59.624Z,19.63
2022-10-06T11:55:03.749Z,19.67
2022-10-06T11:57:32.502Z,19.78
2022-10-06T12:00:06.070Z,19.85
2022-10-06T12:02:38.544Z,19.85
2022-10-06T12:05:49.377Z,19.85
2022-10-06T12:08:01.274Z,19.92
2022-10-06T12:10:28.674Z,19.99
2022-10-06T12:13:40.066Z,20.10
2022-10-06T12:17:05.602Z,20.14
2022-10-06T12:19:41.365Z,20.16
2022-10-06T12:22:21.940Z,20.22
2022-10-06T12:25:01.378Z,20.22
2022-10-06T12:27:52.520Z,20.20
2022-10-06T12:30:48.383Z,20.18
2022-10-06T12:33:17.777Z,20.16
2022-10-06T12:35:45.325Z,20.14
2022-10-06T12:38:30.947Z,20.11
2022-10-06T12:40:59.173Z,20.13
2022-10-06T12:43:35.109Z,20.12
2022-10-06T12:46:31.525Z,20.13
2022-10-06T12:49:11.841Z,20.19
2022-10-06T12:51:42.130Z,20.28
2022-10-06T12:54:23.485Z,20.40
2022-10-06T12:57:03.380Z,20.48
2022-10-06T12:59:33.508Z,20.55
2022-10-06T13:02:08.101Z,20.56
2022-10-06T13:05:21.936Z,20.62
2022-10-06T13:08:06.823Z,20.64
2022-10-06T13:10:34.510Z,20.63
2022-10-06T13:13:02.196Z,20.61
2022-10-06T13:15:35.470Z,20.60
2022-10-06T13:18:19.001Z,20.58
2022-10-06T13:20:51.907Z,20.58
2022-10-06T13:23:33.925Z,20.56
2022-10-06T13:26:21.431Z,20.55
2022-10-06T13:28:54.521Z,20.55
2022-10-06T13:31:31.119Z,20.50
2022-10-06T13:34:09.626Z,20.47
2022-10-06T13:36:40.230Z,20.43
2022-10-06T13:39:18.620Z,20.42
2022-10-06T13:42:03.870Z,20.41
2022-10-06T13:44:42.546Z,20.35
2022-10-06T13:47:20.431Z,20.30
2022-10-06T13:49:55.761Z,20.30
2022-10-06T13:52:50.271Z,20.29
2022-10-06T13:55:23.584Z,20.28
2022-10-06T13:58:03.399Z,20.29
2022-10-06T14:00:56.423Z,20.28
2022-10-06T14:03:39.659Z,20.25
2022-10-06T14:06:20.608Z,20.24
2022-10-06T14:08:58.257Z,20.24
2022-10-06T14:11:30.515Z,20.21
2022-10-06T14:14:01.821Z,20.17
2022-10-06T14:16:29.940Z,20.14
2022-10-06T14:19:00.357Z,20.11
2022-10-06T14:21:41.008Z,20.07
2022-10-06T14:24:19.995Z,20.02
2022-10-06T14:26:54.285Z,19.98
2022-10-06T14:29:22.219Z,19.95
2022-10-06T14:31:50.140Z,19.91
2022-10-06T14:34:20.347Z,19.87
2022-10-06T14:36:54.599Z,19.83
2022-10-06T14:39:22.501Z,19.79
2022-10-06T14:41:49.934Z,19.74
2022-10-06T14:44:17.245Z,19.68
2022-10-06T14:46:48.342Z,19.64
2022-10-06T14:49:16.262Z,19.55
2022-10-06T14:51:45.497Z,19.53
2022-10-06T14:54:13.353Z,19.49
2022-10-06T14:56:41.783Z,19.43
2022-10-06T14:59:13.898Z,19.36
2022-10-06T15:01:41.846Z,19.29
2022-10-06T15:04:21.714Z,19.25
2022-10-06T15:07:07.725Z,19.19
2022-10-06T15:09:35.348Z,19.13
2022-10-06T15:12:03.400Z,19.06
2022-10-06T15:14:31.553Z,18.99
2022-10-06T15:16:59.846Z,18.90
2022-10-06T15:19:27.411Z,18.81
2022-10-06T15:21:55.029Z,18.71
2022-10-06T15:24:23.863Z,18.62
2022-10-06T15:27:10.039Z,18.54
2022-10-06T15:29:37.342Z,18.44
2022-10-06T15:32:05.714Z,18.32
2022-10-06T15:34:33.854Z,18.21
2022-10-06T15:37:01.764Z,18.10
2022-10-06T15:39:31.652Z,17.98
2022-10-06T15:41:59.176Z,17.85
2022-10-06T15:44:26.699Z,17.69
2022-10-06T15:46:56.226Z,17.51
2022-10-06T15:49:34.070Z,17.32
2022-10-06T15:52:03.227Z,17.13
2022-10-06T15:54:36.948Z,16.98
2022-10-06T15:57:08.501Z,16.80
2022-10-06T15:59:36.460Z,16.66
2022-10-06T16:02:09.111Z,16.55
2022-10-06T16:04:38.453Z,16.42
2022-10-06T16:07:15.113Z,16.29
2022-10-06T16:09:47.762Z,16.21
2022-10-06T16:12:18.415Z,16.11
2022-10-06T16:14:46.286Z,15.98
2022-10-06T16:17:14.813Z,15.85
2022-10-06T16:19:42.294Z,15.72
2022-10-06T16:22:13.284Z,15.59
2022-10-06T16:24:41.072Z,15.47
2022-10-06T16:27:15.520Z,15.34
2022-10-06T16:29:43.264Z,15.23
2022-10-06T16:32:10.964Z,15.13
2022-10-06T16:34:38.755Z,15.02
2022-10-06T16:37:06.263Z,14.89
2022-10-06T16:39:33.686Z,14.79
2022-10-06T16:42:01.169Z,14.68
2022-10-06T16:44:28.542Z,14.56
2022-10-06T16:46:56.117Z,14.44
2022-10-06T16:49:24.110Z,14.34
2022-10-06T16:51:51.718Z,14.26
2022-10-06T16:54:19.184Z,14.16
2022-10-06T16:56:51.204Z,14.05
2022-10-06T16:59:21.573Z,13.95
2022-10-06T17:01:50.149Z,13.88
2022-10-06T17:04:25.470Z,13.80
2022-10-06T17:06:55.103Z,13.74
2022-10-06T17:09:27.973Z,13.69
2022-10-06T17:11:57.945Z,13.64
2022-10-06T17:14:26.484Z,13.56
2022-10-06T17:16:57.896Z,13.50
2022-10-06T17:19:29.349Z,13.44
2022-10-06T17:21:59.552Z,13.35
2022-10-06T17:24:29.374Z,13.26
2022-10-06T17:26:57.668Z,13.19
2022-10-06T17:29:25.969Z,13.11
2022-10-06T17:31:58.202Z,13.06
2022-10-06T17:34:30.714Z,13.03
2022-10-06T17:37:01.205Z,13.01
2022-10-06T17:39:29.324Z,12.98
2022-10-06T17:41:57.332Z,12.96
2022-10-06T17:44:27.490Z,12.93
2022-10-06T17:47:00.089Z,12.89
2022-10-06T17:49:34.459Z,12.82
2022-10-06T17:52:03.713Z,12.74
2022-10-06T17:54:32.957Z,12.67
2022-10-06T17:57:00.328Z,12.62
2022-10-06T17:59:30.035Z,12.60
2022-10-06T18:02:00.729Z,12.61
2022-10-06T18:04:29.102Z,12.61
2022-10-06T18:06:56.984Z,12.60
2022-10-06T18:09:24.649Z,12.57
2022-10-06T18:11:56.246Z,12.52
2022-10-06T18:14:32.879Z,12.48
2022-10-06T18:17:02.124Z,12.42
2022-10-06T18:19:35.017Z,12.38
2022-10-06T18:22:09.535Z,12.35
2022-10-06T18:24:36.979Z,12.30
2022-10-06T18:27:05.873Z,12.26
2022-10-06T18:29:35.753Z,12.20
2022-10-06T18:36:12.988Z,12.11
2022-10-06T18:37:42.163Z,12.05
2022-10-06T18:40:10.855Z,12.01
2022-10-06T18:42:40.351Z,11.97
2022-10-06T18:45:28.784Z,11.94
2022-10-06T18:48:15.085Z,11.89
2022-10-06T18:50:42.444Z,11.84
2022-10-06T18:53:09.834Z,11.80
2022-10-06T18:55:37.153Z,11.75
2022-10-06T18:58:04.898Z,11.71
2022-10-06T19:00:32.845Z,11.67
2022-10-06T19:03:00.435Z,11.64
2022-10-06T19:05:27.761Z,11.61
2022-10-06T19:07:55.279Z,11.58
2022-10-06T19:10:22.724Z,11.55
2022-10-06T19:12:50.061Z,11.50
2022-10-06T19:15:20.675Z,11.45
2022-10-06T19:17:49.605Z,11.39
2022-10-06T19:20:17.818Z,11.33
2022-10-06T19:22:46.027Z,11.28
2022-10-06T19:25:14.346Z,11.24
2022-10-06T19:27:42.110Z,11.21
2022-10-06T19:30:10.566Z,11.17
2022-10-06T19:32:38.347Z,11.11
2022-10-06T19:35:10.159Z,11.06
2022-10-06T19:37:38.845Z,11.01
2022-10-06T19:40:08.269Z,10.97
2022-10-06T19:42:48.085Z,10.96
2022-10-06T19:45:16.362Z,10.94
2022-10-06T19:47:44.527Z,10.91
2022-10-06T19:50:12.997Z,10.88
2022-10-06T19:52:41.556Z,10.85
2022-10-06T19:55:09.145Z,10.83
2022-10-06T19:57:36.644Z,10.80
2022-10-06T20:00:06.008Z,10.78
2022-10-06T20:02:43.842Z,10.77
2022-10-06T20:05:15.332Z,10.74
2022-10-06T20:07:43.742Z,10.71
2022-10-06T20:10:12.779Z,10.65
2022-10-06T20:12:40.995Z,10.60
2022-10-06T20:15:09.504Z,10.56
2022-10-06T20:17:37.490Z,10.53
2022-10-06T20:20:05.629Z,10.51
2022-10-06T20:22:32.805Z,10.49
2022-10-06T20:25:02.061Z,10.46
2022-10-06T20:27:29.719Z,10.43
2022-10-06T20:29:57.713Z,10.38
2022-10-06T20:32:25.001Z,10.37
2022-10-06T20:34:52.291Z,10.34
2022-10-06T20:37:19.647Z,10.33
2022-10-06T20:40:05.615Z,10.31
2022-10-06T20:42:33.308Z,10.28
2022-10-06T20:45:00.909Z,10.25
2022-10-06T20:47:29.313Z,10.21
2022-10-06T20:49:56.570Z,10.18
2022-10-06T20:52:23.938Z,10.13
2022-10-06T20:54:51.650Z,10.15
2022-10-06T20:57:19.422Z,10.13
2022-10-06T20:59:46.911Z,10.12
2022-10-06T21:02:14.397Z,10.11
2022-10-06T21:04:44.088Z,10.11
2022-10-06T21:07:11.467Z,10.12
2022-10-06T21:09:39.732Z,10.13
2022-10-06T21:12:07.247Z,10.13
2022-10-06T21:14:35.809Z,10.12
2022-10-06T21:17:03.742Z,10.11
2022-10-06T21:19:36.703Z,10.11
2022-10-06T21:22:04.562Z,10.12
2022-10-06T21:24:31.896Z,10.14
2022-10-06T21:26:59.623Z,10.16
2022-10-06T21:29:27.439Z,10.17
2022-10-06T21:31:54.892Z,10.16
2022-10-06T21:34:22.263Z,10.13
2022-10-06T21:36:50.216Z,10.11
2022-10-06T21:39:18.237Z,10.10
2022-10-06T21:41:45.587Z,10.10
2022-10-06T21:44:15.574Z,10.10
2022-10-06T21:46:52.743Z,10.08
2022-10-06T21:49:22.599Z,10.07
2022-10-06T21:51:55.834Z,10.06
2022-10-06T21:54:23.617Z,10.07
2022-10-06T21:56:51.838Z,10.09
2022-10-06T21:59:19.298Z,10.13
2022-10-06T22:01:49.663Z,10.19
2022-10-06T22:04:17.423Z,10.22
2022-10-06T22:06:49.602Z,10.23
2022-10-06T22:09:18.926Z,10.25
2022-10-06T22:11:46.363Z,10.26
2022-10-06T22:14:16.321Z,10.29
2022-10-06T22:16:44.391Z,10.33
2022-10-06T22:19:14.004Z,10.35
2022-10-06T22:21:43.805Z,10.37
2022-10-06T22:24:22.359Z,10.38
2022-10-06T22:26:50.068Z,10.39
2022-10-06T22:29:19.700Z,10.42
2022-10-06T22:31:48.282Z,10.45
2022-10-06T22:34:19.098Z,10.46
2022-10-06T22:36:46.923Z,10.45
2022-10-06T22:39:14.450Z,10.46
2022-10-06T22:41:42.096Z,10.46
2022-10-06T22:44:09.648Z,10.48
2022-10-06T22:46:37.791Z,10.49
2022-10-06T22:49:05.961Z,10.50
2022-10-06T22:51:33.666Z,10.49
2022-10-06T22:54:01.390Z,10.47
2022-10-06T22:56:31.997Z,10.46
2022-10-06T22:59:00.428Z,10.45
2022-10-06T23:01:29.444Z,10.45
2022-10-06T23:03:58.234Z,10.48
2022-10-06T23:06:26.195Z,10.50
2022-10-06T23:08:53.505Z,10.49
2022-10-06T23:11:21.725Z,10.55
2022-10-06T23:13:49.889Z,10.57
2022-10-06T23:16:19.426Z,10.62
2022-10-06T23:18:48.249Z,10.65
2022-10-06T23:21:23.509Z,10.68
2022-10-06T23:23:58.400Z,10.70
2022-10-06T23:26:26.436Z,10.72
2022-10-06T23:28:59.403Z,10.75
2022-10-06T23:31:28.795Z,10.78
2022-10-06T23:33:56.647Z,10.82
2022-10-06T23:36:24.154Z,10.87
2022-10-06T23:38:51.673Z,10.91
2022-10-06T23:41:19.358Z,10.95
2022-10-06T23:43:46.844Z,10.96
2022-10-06T23:46:14.812Z,10.98
2022-10-06T23:48:42.937Z,11.03
2022-10-06T23:51:14.649Z,11.06
2022-10-06T23:53:42.681Z,11.10
2022-10-06T23:56:10.556Z,11.14
2022-10-06T23:58:38.246Z,11.17
